Terminal Aerodrome Forecast
Issued by NWS Shreveport, LA

Home | Current Version | Previous Version | Text Only | Print | Product List | Glossary On
Versions: 1 2 3 4 5 6 7 8 9 10 11 12
000
FTUS44 KSHV 250539
TAFGGG
TAF
KGGG 250539Z 2506/2606 17004KT P6SM SCT250
     FM251500 20008KT P6SM SCT250
     FM251900 21008G15KT P6SM SCT250
     FM260000 17004KT P6SM SKC=

USA.gov is the U.S. government's official web portal to all federal, state and local government web resources and services.